sensor_id;sensor_type;location;lat;lon;timestamp;P1;durP1;ratioP1;P2;durP2;ratioP2
80247;SDS011;69560;52.206;21.018;2024-01-07T00:04:36;35.90;;;19.30;;
80247;SDS011;69560;52.206;21.018;2024-01-07T00:07:04;38.20;;;20.70;;
80247;SDS011;69560;52.206;21.018;2024-01-07T00:09:31;36.40;;;21.10;;
80247;SDS011;69560;52.206;21.018;2024-01-07T00:11:57;34.90;;;21.10;;
80247;SDS011;69560;52.206;21.018;2024-01-07T00:14:24;38.30;;;21.50;;
80247;SDS011;69560;52.206;21.018;2024-01-07T00:16:51;37.60;;;20.50;;
80247;SDS011;69560;52.206;21.018;2024-01-07T00:19:18;37.00;;;20.30;;
80247;SDS011;69560;52.206;21.018;2024-01-07T00:21:45;36.20;;;21.30;;
80247;SDS011;69560;52.206;21.018;2024-01-07T00:24:11;33.40;;;19.70;;
80247;SDS011;69560;52.206;21.018;2024-01-07T00:26:38;34.80;;;20.00;;
80247;SDS011;69560;52.206;21.018;2024-01-07T00:29:04;39.60;;;22.30;;
80247;SDS011;69560;52.206;21.018;2024-01-07T00:31:30;37.10;;;20.80;;
80247;SDS011;69560;52.206;21.018;2024-01-07T00:34:12;37.10;;;21.50;;
80247;SDS011;69560;52.206;21.018;2024-01-07T00:36:39;41.30;;;22.40;;
80247;SDS011;69560;52.206;21.018;2024-01-07T00:39:07;39.00;;;22.40;;
80247;SDS011;69560;52.206;21.018;2024-01-07T00:41:33;36.90;;;21.20;;
80247;SDS011;69560;52.206;21.018;2024-01-07T00:44:00;35.60;;;21.50;;
80247;SDS011;69560;52.206;21.018;2024-01-07T00:46:26;39.60;;;21.70;;
80247;SDS011;69560;52.206;21.018;2024-01-07T00:48:52;36.30;;;21.00;;
80247;SDS011;69560;52.206;21.018;2024-01-07T00:51:19;37.50;;;21.50;;
80247;SDS011;69560;52.206;21.018;2024-01-07T00:53:46;35.10;;;21.00;;
80247;SDS011;69560;52.206;21.018;2024-01-07T00:56:12;39.10;;;22.50;;
80247;SDS011;69560;52.206;21.018;2024-01-07T00:58:39;36.70;;;21.70;;
80247;SDS011;69560;52.206;21.018;2024-01-07T01:01:14;36.90;;;21.10;;
80247;SDS011;69560;52.206;21.018;2024-01-07T01:03:40;34.30;;;21.10;;
80247;SDS011;69560;52.206;21.018;2024-01-07T01:06:21;39.90;;;22.30;;
80247;SDS011;69560;52.206;21.018;2024-01-07T01:08:47;37.60;;;21.90;;
80247;SDS011;69560;52.206;21.018;2024-01-07T01:11:14;36.10;;;22.30;;
80247;SDS011;69560;52.206;21.018;2024-01-07T01:13:40;36.30;;;21.50;;
80247;SDS011;69560;52.206;21.018;2024-01-07T01:16:21;38.50;;;21.60;;
80247;SDS011;69560;52.206;21.018;2024-01-07T01:18:47;37.10;;;20.80;;
80247;SDS011;69560;52.206;21.018;2024-01-07T01:21:14;35.90;;;20.70;;
80247;SDS011;69560;52.206;21.018;2024-01-07T01:23:43;40.10;;;22.40;;
80247;SDS011;69560;52.206;21.018;2024-01-07T01:26:10;39.90;;;21.90;;
80247;SDS011;69560;52.206;21.018;2024-01-07T01:28:38;38.80;;;20.90;;
80247;SDS011;69560;52.206;21.018;2024-01-07T01:31:07;34.00;;;20.00;;
80247;SDS011;69560;52.206;21.018;2024-01-07T01:33:34;41.00;;;22.70;;
80247;SDS011;69560;52.206;21.018;2024-01-07T01:36:03;36.50;;;20.30;;
80247;SDS011;69560;52.206;21.018;2024-01-07T01:38:35;33.20;;;19.90;;
80247;SDS011;69560;52.206;21.018;2024-01-07T01:41:02;36.60;;;18.40;;
80247;SDS011;69560;52.206;21.018;2024-01-07T01:43:28;35.00;;;18.90;;
80247;SDS011;69560;52.206;21.018;2024-01-07T01:45:55;32.00;;;18.60;;
80247;SDS011;69560;52.206;21.018;2024-01-07T01:48:22;30.60;;;18.80;;
80247;SDS011;69560;52.206;21.018;2024-01-07T01:50:51;31.10;;;18.20;;
80247;SDS011;69560;52.206;21.018;2024-01-07T01:53:20;28.90;;;17.40;;
80247;SDS011;69560;52.206;21.018;2024-01-07T01:55:48;28.70;;;17.90;;
80247;SDS011;69560;52.206;21.018;2024-01-07T01:58:22;32.20;;;18.70;;
80247;SDS011;69560;52.206;21.018;2024-01-07T02:00:49;30.60;;;18.20;;
80247;SDS011;69560;52.206;21.018;2024-01-07T02:03:17;31.80;;;18.80;;
80247;SDS011;69560;52.206;21.018;2024-01-07T02:05:44;31.00;;;19.40;;
80247;SDS011;69560;52.206;21.018;2024-01-07T02:08:11;32.90;;;19.80;;
80247;SDS011;69560;52.206;21.018;2024-01-07T02:10:39;29.60;;;18.60;;
80247;SDS011;69560;52.206;21.018;2024-01-07T02:13:06;35.00;;;20.10;;
80247;SDS011;69560;52.206;21.018;2024-01-07T02:15:45;34.40;;;19.80;;
80247;SDS011;69560;52.206;21.018;2024-01-07T02:18:11;32.20;;;18.80;;
80247;SDS011;69560;52.206;21.018;2024-01-07T02:20:40;31.40;;;19.70;;
80247;SDS011;69560;52.206;21.018;2024-01-07T02:23:06;31.90;;;18.90;;
80247;SDS011;69560;52.206;21.018;2024-01-07T02:25:36;31.80;;;19.00;;
80247;SDS011;69560;52.206;21.018;2024-01-07T02:28:04;31.80;;;18.30;;
80247;SDS011;69560;52.206;21.018;2024-01-07T02:30:31;26.40;;;17.30;;
80247;SDS011;69560;52.206;21.018;2024-01-07T02:33:00;26.80;;;15.70;;
80247;SDS011;69560;52.206;21.018;2024-01-07T02:35:29;26.70;;;16.40;;
80247;SDS011;69560;52.206;21.018;2024-01-07T02:37:55;24.50;;;15.20;;
80247;SDS011;69560;52.206;21.018;2024-01-07T02:45:38;24.10;;;13.80;;
80247;SDS011;69560;52.206;21.018;2024-01-07T02:48:05;20.70;;;13.10;;
80247;SDS011;69560;52.206;21.018;2024-01-07T02:50:45;22.00;;;13.40;;
80247;SDS011;69560;52.206;21.018;2024-01-07T02:53:15;21.10;;;14.40;;
80247;SDS011;69560;52.206;21.018;2024-01-07T02:58:41;22.10;;;13.80;;
80247;SDS011;69560;52.206;21.018;2024-01-07T03:01:08;20.30;;;13.60;;
80247;SDS011;69560;52.206;21.018;2024-01-07T03:03:36;22.30;;;14.40;;
80247;SDS011;69560;52.206;21.018;2024-01-07T03:09:12;21.20;;;14.30;;
80247;SDS011;69560;52.206;21.018;2024-01-07T03:11:45;23.10;;;14.10;;
80247;SDS011;69560;52.206;21.018;2024-01-07T03:14:11;28.30;;;16.30;;
80247;SDS011;69560;52.206;21.018;2024-01-07T03:16:38;23.50;;;15.50;;
80247;SDS011;69560;52.206;21.018;2024-01-07T03:19:05;20.60;;;14.70;;
80247;SDS011;69560;52.206;21.018;2024-01-07T03:21:31;23.10;;;14.50;;
80247;SDS011;69560;52.206;21.018;2024-01-07T03:23:58;24.20;;;15.00;;
80247;SDS011;69560;52.206;21.018;2024-01-07T03:29:12;24.60;;;15.20;;
80247;SDS011;69560;52.206;21.018;2024-01-07T03:31:39;23.40;;;15.40;;
80247;SDS011;69560;52.206;21.018;2024-01-07T03:34:05;24.00;;;16.30;;
80247;SDS011;69560;52.206;21.018;2024-01-07T03:36:47;27.20;;;16.20;;
80247;SDS011;69560;52.206;21.018;2024-01-07T03:39:13;22.80;;;15.50;;
80247;SDS011;69560;52.206;21.018;2024-01-07T03:41:40;25.90;;;16.30;;
80247;SDS011;69560;52.206;21.018;2024-01-07T03:44:06;28.70;;;17.20;;
80247;SDS011;69560;52.206;21.018;2024-01-07T03:46:48;24.10;;;16.50;;
80247;SDS011;69560;52.206;21.018;2024-01-07T03:52:41;23.60;;;14.90;;
80247;SDS011;69560;52.206;21.018;2024-01-07T03:55:08;23.50;;;15.00;;
80247;SDS011;69560;52.206;21.018;2024-01-07T03:57:46;24.60;;;15.90;;
80247;SDS011;69560;52.206;21.018;2024-01-07T04:00:16;24.90;;;15.50;;
80247;SDS011;69560;52.206;21.018;2024-01-07T04:02:43;24.00;;;15.50;;
80247;SDS011;69560;52.206;21.018;2024-01-07T04:05:10;25.50;;;16.00;;
80247;SDS011;69560;52.206;21.018;2024-01-07T04:07:37;24.50;;;16.10;;
80247;SDS011;69560;52.206;21.018;2024-01-07T04:10:03;22.70;;;15.20;;
80247;SDS011;69560;52.206;21.018;2024-01-07T04:12:48;25.20;;;16.00;;
80247;SDS011;69560;52.206;21.018;2024-01-07T04:15:15;21.70;;;14.50;;
80247;SDS011;69560;52.206;21.018;2024-01-07T04:17:55;22.30;;;15.30;;
80247;SDS011;69560;52.206;21.018;2024-01-07T04:25:47;22.80;;;14.40;;
80247;SDS011;69560;52.206;21.018;2024-01-07T04:28:16;22.80;;;15.00;;
80247;SDS011;69560;52.206;21.018;2024-01-07T04:33:43;22.40;;;14.30;;
80247;SDS011;69560;52.206;21.018;2024-01-07T04:36:10;21.30;;;14.10;;
80247;SDS011;69560;52.206;21.018;2024-01-07T04:38:36;24.30;;;14.20;;
80247;SDS011;69560;52.206;21.018;2024-01-07T04:41:17;25.60;;;15.30;;
80247;SDS011;69560;52.206;21.018;2024-01-07T04:43:44;22.10;;;14.80;;
80247;SDS011;69560;52.206;21.018;2024-01-07T04:46:10;21.00;;;14.80;;
80247;SDS011;69560;52.206;21.018;2024-01-07T04:48:37;21.50;;;14.70;;
80247;SDS011;69560;52.206;21.018;2024-01-07T04:51:04;24.90;;;14.70;;
80247;SDS011;69560;52.206;21.018;2024-01-07T04:53:30;19.40;;;13.20;;
80247;SDS011;69560;52.206;21.018;2024-01-07T04:58:43;20.50;;;13.60;;
80247;SDS011;69560;52.206;21.018;2024-01-07T05:01:10;22.60;;;14.30;;
80247;SDS011;69560;52.206;21.018;2024-01-07T05:03:48;21.80;;;14.50;;
80247;SDS011;69560;52.206;21.018;2024-01-07T05:06:15;21.00;;;14.10;;
80247;SDS011;69560;52.206;21.018;2024-01-07T05:08:42;22.80;;;13.80;;
80247;SDS011;69560;52.206;21.018;2024-01-07T05:11:18;22.20;;;14.50;;
80247;SDS011;69560;52.206;21.018;2024-01-07T05:13:44;21.10;;;14.20;;
80247;SDS011;69560;52.206;21.018;2024-01-07T05:19:14;23.40;;;14.50;;
80247;SDS011;69560;52.206;21.018;2024-01-07T05:24:49;21.70;;;14.80;;
80247;SDS011;69560;52.206;21.018;2024-01-07T05:27:16;23.70;;;14.30;;
80247;SDS011;69560;52.206;21.018;2024-01-07T05:29:44;23.10;;;14.60;;
80247;SDS011;69560;52.206;21.018;2024-01-07T05:38:20;23.00;;;14.50;;
80247;SDS011;69560;52.206;21.018;2024-01-07T05:40:49;23.20;;;14.50;;
80247;SDS011;69560;52.206;21.018;2024-01-07T05:43:15;23.60;;;14.40;;
80247;SDS011;69560;52.206;21.018;2024-01-07T05:45:51;21.20;;;15.10;;
80247;SDS011;69560;52.206;21.018;2024-01-07T05:48:18;20.60;;;14.00;;
80247;SDS011;69560;52.206;21.018;2024-01-07T05:51:16;22.30;;;14.90;;
80247;SDS011;69560;52.206;21.018;2024-01-07T05:53:43;24.60;;;13.80;;
80247;SDS011;69560;52.206;21.018;2024-01-07T05:56:11;24.50;;;15.10;;
80247;SDS011;69560;52.206;21.018;2024-01-07T05:58:38;21.70;;;14.00;;
80247;SDS011;69560;52.206;21.018;2024-01-07T06:01:21;22.30;;;15.20;;
80247;SDS011;69560;52.206;21.018;2024-01-07T06:07:15;20.00;;;14.50;;
80247;SDS011;69560;52.206;21.018;2024-01-07T06:09:41;23.40;;;14.80;;
80247;SDS011;69560;52.206;21.018;2024-01-07T06:12:07;23.10;;;15.50;;
80247;SDS011;69560;52.206;21.018;2024-01-07T06:14:34;22.90;;;14.60;;
80247;SDS011;69560;52.206;21.018;2024-01-07T06:17:01;23.30;;;15.50;;
80247;SDS011;69560;52.206;21.018;2024-01-07T06:19:29;22.50;;;15.10;;
80247;SDS011;69560;52.206;21.018;2024-01-07T06:21:56;23.50;;;14.90;;
80247;SDS011;69560;52.206;21.018;2024-01-07T06:24:22;22.50;;;15.30;;
80247;SDS011;69560;52.206;21.018;2024-01-07T06:26:49;22.60;;;15.30;;
80247;SDS011;69560;52.206;21.018;2024-01-07T06:29:16;20.60;;;14.20;;
80247;SDS011;69560;52.206;21.018;2024-01-07T06:31:49;22.60;;;15.70;;
80247;SDS011;69560;52.206;21.018;2024-01-07T06:34:16;22.60;;;14.70;;
80247;SDS011;69560;52.206;21.018;2024-01-07T06:36:51;22.80;;;14.80;;
80247;SDS011;69560;52.206;21.018;2024-01-07T06:39:18;24.40;;;15.40;;
80247;SDS011;69560;52.206;21.018;2024-01-07T06:41:47;24.20;;;15.20;;
80247;SDS011;69560;52.206;21.018;2024-01-07T06:44:14;22.80;;;14.80;;
80247;SDS011;69560;52.206;21.018;2024-01-07T06:46:51;23.60;;;16.00;;
80247;SDS011;69560;52.206;21.018;2024-01-07T06:49:20;23.40;;;15.40;;
80247;SDS011;69560;52.206;21.018;2024-01-07T06:51:46;24.50;;;15.50;;
80247;SDS011;69560;52.206;21.018;2024-01-07T06:54:13;25.70;;;15.90;;
80247;SDS011;69560;52.206;21.018;2024-01-07T06:56:39;22.80;;;14.90;;
80247;SDS011;69560;52.206;21.018;2024-01-07T06:59:21;24.10;;;15.70;;
80247;SDS011;69560;52.206;21.018;2024-01-07T07:01:47;22.90;;;15.00;;
80247;SDS011;69560;52.206;21.018;2024-01-07T07:04:20;24.10;;;15.40;;
80247;SDS011;69560;52.206;21.018;2024-01-07T07:06:47;25.30;;;15.90;;
80247;SDS011;69560;52.206;21.018;2024-01-07T07:09:14;23.70;;;15.80;;
80247;SDS011;69560;52.206;21.018;2024-01-07T07:11:41;22.20;;;15.30;;
80247;SDS011;69560;52.206;21.018;2024-01-07T07:14:07;20.70;;;14.60;;
80247;SDS011;69560;52.206;21.018;2024-01-07T07:16:34;26.50;;;15.60;;
80247;SDS011;69560;52.206;21.018;2024-01-07T07:19:00;23.90;;;15.00;;
80247;SDS011;69560;52.206;21.018;2024-01-07T07:21:27;24.70;;;15.40;;
80247;SDS011;69560;52.206;21.018;2024-01-07T07:23:53;21.80;;;15.80;;
80247;SDS011;69560;52.206;21.018;2024-01-07T07:26:20;22.20;;;15.30;;
80247;SDS011;69560;52.206;21.018;2024-01-07T07:28:49;21.40;;;14.70;;
80247;SDS011;69560;52.206;21.018;2024-01-07T07:34:20;20.70;;;14.30;;
80247;SDS011;69560;52.206;21.018;2024-01-07T07:37:00;21.60;;;13.60;;
80247;SDS011;69560;52.206;21.018;2024-01-07T07:39:27;20.30;;;14.20;;
80247;SDS011;69560;52.206;21.018;2024-01-07T07:41:53;18.90;;;13.10;;
80247;SDS011;69560;52.206;21.018;2024-01-07T07:44:20;17.70;;;12.70;;
80247;SDS011;69560;52.206;21.018;2024-01-07T07:47:01;19.70;;;12.60;;
80247;SDS011;69560;52.206;21.018;2024-01-07T07:52:18;18.80;;;13.50;;
80247;SDS011;69560;52.206;21.018;2024-01-07T07:54:53;19.40;;;13.60;;
80247;SDS011;69560;52.206;21.018;2024-01-07T07:57:21;19.80;;;13.30;;
80247;SDS011;69560;52.206;21.018;2024-01-07T07:59:48;25.30;;;15.00;;
80247;SDS011;69560;52.206;21.018;2024-01-07T08:02:15;20.60;;;13.80;;
80247;SDS011;69560;52.206;21.018;2024-01-07T08:04:42;19.20;;;12.60;;
80247;SDS011;69560;52.206;21.018;2024-01-07T08:07:21;18.40;;;12.70;;
80247;SDS011;69560;52.206;21.018;2024-01-07T08:09:48;18.70;;;12.80;;
80247;SDS011;69560;52.206;21.018;2024-01-07T08:12:14;19.90;;;13.70;;
80247;SDS011;69560;52.206;21.018;2024-01-07T08:17:50;21.80;;;13.70;;
80247;SDS011;69560;52.206;21.018;2024-01-07T08:20:17;20.50;;;13.70;;
80247;SDS011;69560;52.206;21.018;2024-01-07T08:22:54;21.90;;;13.70;;
80247;SDS011;69560;52.206;21.018;2024-01-07T08:25:23;21.30;;;13.00;;
80247;SDS011;69560;52.206;21.018;2024-01-07T08:27:55;20.90;;;14.70;;
80247;SDS011;69560;52.206;21.018;2024-01-07T08:30:25;20.50;;;13.80;;
80247;SDS011;69560;52.206;21.018;2024-01-07T08:32:51;25.00;;;16.00;;
80247;SDS011;69560;52.206;21.018;2024-01-07T08:35:18;19.80;;;14.40;;
80247;SDS011;69560;52.206;21.018;2024-01-07T08:37:54;20.30;;;14.00;;
80247;SDS011;69560;52.206;21.018;2024-01-07T08:40:23;20.30;;;14.40;;
80247;SDS011;69560;52.206;21.018;2024-01-07T08:42:50;21.40;;;14.80;;
80247;SDS011;69560;52.206;21.018;2024-01-07T08:45:17;20.10;;;14.30;;
80247;SDS011;69560;52.206;21.018;2024-01-07T08:47:45;20.00;;;13.60;;
80247;SDS011;69560;52.206;21.018;2024-01-07T08:50:12;20.60;;;14.30;;
80247;SDS011;69560;52.206;21.018;2024-01-07T08:52:39;23.40;;;15.40;;
80247;SDS011;69560;52.206;21.018;2024-01-07T08:55:06;22.60;;;14.10;;
80247;SDS011;69560;52.206;21.018;2024-01-07T09:01:18;22.00;;;15.90;;
80247;SDS011;69560;52.206;21.018;2024-01-07T09:03:50;25.20;;;15.90;;
80247;SDS011;69560;52.206;21.018;2024-01-07T09:06:26;22.90;;;15.90;;
80247;SDS011;69560;52.206;21.018;2024-01-07T09:08:56;23.90;;;16.40;;
80247;SDS011;69560;52.206;21.018;2024-01-07T09:11:22;26.60;;;17.20;;
80247;SDS011;69560;52.206;21.018;2024-01-07T09:14:21;24.10;;;16.50;;
80247;SDS011;69560;52.206;21.018;2024-01-07T09:16:47;23.00;;;16.20;;
80247;SDS011;69560;52.206;21.018;2024-01-07T09:19:14;22.90;;;15.90;;
80247;SDS011;69560;52.206;21.018;2024-01-07T09:21:44;25.70;;;16.90;;
80247;SDS011;69560;52.206;21.018;2024-01-07T09:24:22;22.40;;;15.50;;
80247;SDS011;69560;52.206;21.018;2024-01-07T09:26:49;27.40;;;17.40;;
80247;SDS011;69560;52.206;21.018;2024-01-07T09:29:17;24.20;;;16.50;;
80247;SDS011;69560;52.206;21.018;2024-01-07T09:31:44;24.20;;;16.10;;
80247;SDS011;69560;52.206;21.018;2024-01-07T09:34:11;24.10;;;17.00;;
80247;SDS011;69560;52.206;21.018;2024-01-07T09:36:37;26.80;;;16.80;;
80247;SDS011;69560;52.206;21.018;2024-01-07T09:41:54;21.10;;;15.60;;
80247;SDS011;69560;52.206;21.018;2024-01-07T09:47:25;24.50;;;16.10;;
80247;SDS011;69560;52.206;21.018;2024-01-07T09:56:25;22.40;;;15.50;;
80247;SDS011;69560;52.206;21.018;2024-01-07T09:58:55;26.70;;;17.90;;
80247;SDS011;69560;52.206;21.018;2024-01-07T10:01:21;29.40;;;17.40;;
80247;SDS011;69560;52.206;21.018;2024-01-07T10:03:48;23.20;;;16.90;;
80247;SDS011;69560;52.206;21.018;2024-01-07T10:06:18;27.00;;;17.80;;
80247;SDS011;69560;52.206;21.018;2024-01-07T10:08:46;25.30;;;16.90;;
80247;SDS011;69560;52.206;21.018;2024-01-07T10:11:16;25.40;;;16.20;;
80247;SDS011;69560;52.206;21.018;2024-01-07T10:13:48;23.30;;;16.60;;
80247;SDS011;69560;52.206;21.018;2024-01-07T10:16:17;23.30;;;16.90;;
80247;SDS011;69560;52.206;21.018;2024-01-07T10:18:47;23.60;;;16.70;;
80247;SDS011;69560;52.206;21.018;2024-01-07T10:21:27;25.80;;;16.00;;
80247;SDS011;69560;52.206;21.018;2024-01-07T10:24:06;24.80;;;15.50;;
80247;SDS011;69560;52.206;21.018;2024-01-07T10:26:53;23.70;;;16.20;;
80247;SDS011;69560;52.206;21.018;2024-01-07T10:29:28;26.20;;;17.60;;
80247;SDS011;69560;52.206;21.018;2024-01-07T10:35:22;28.60;;;18.80;;
80247;SDS011;69560;52.206;21.018;2024-01-07T10:37:59;32.80;;;18.40;;
80247;SDS011;69560;52.206;21.018;2024-01-07T10:40:27;26.30;;;18.40;;
80247;SDS011;69560;52.206;21.018;2024-01-07T10:45:56;50.90;;;33.20;;
80247;SDS011;69560;52.206;21.018;2024-01-07T10:51:28;29.70;;;19.10;;
80247;SDS011;69560;52.206;21.018;2024-01-07T10:53:56;31.90;;;20.70;;
80247;SDS011;69560;52.206;21.018;2024-01-07T10:56:23;30.30;;;20.00;;
80247;SDS011;69560;52.206;21.018;2024-01-07T10:59:03;29.50;;;20.30;;
80247;SDS011;69560;52.206;21.018;2024-01-07T11:01:31;30.70;;;19.00;;
80247;SDS011;69560;52.206;21.018;2024-01-07T11:04:29;31.40;;;20.50;;
80247;SDS011;69560;52.206;21.018;2024-01-07T11:06:59;26.40;;;18.40;;
80247;SDS011;69560;52.206;21.018;2024-01-07T11:12:22;24.90;;;16.40;;
80247;SDS011;69560;52.206;21.018;2024-01-07T11:14:49;23.10;;;16.10;;
80247;SDS011;69560;52.206;21.018;2024-01-07T11:17:39;23.40;;;15.70;;
80247;SDS011;69560;52.206;21.018;2024-01-07T11:20:29;27.30;;;17.30;;
80247;SDS011;69560;52.206;21.018;2024-01-07T11:29:27;27.70;;;16.50;;
80247;SDS011;69560;52.206;21.018;2024-01-07T11:31:54;25.80;;;16.90;;
80247;SDS011;69560;52.206;21.018;2024-01-07T11:34:38;25.90;;;17.70;;
80247;SDS011;69560;52.206;21.018;2024-01-07T11:37:10;25.70;;;17.30;;
80247;SDS011;69560;52.206;21.018;2024-01-07T11:39:45;26.70;;;18.50;;
80247;SDS011;69560;52.206;21.018;2024-01-07T11:42:12;29.00;;;19.50;;
80247;SDS011;69560;52.206;21.018;2024-01-07T11:48:28;24.80;;;17.20;;
80247;SDS011;69560;52.206;21.018;2024-01-07T11:50:54;23.70;;;16.30;;
80247;SDS011;69560;52.206;21.018;2024-01-07T11:53:21;21.90;;;15.20;;
80247;SDS011;69560;52.206;21.018;2024-01-07T11:55:48;20.00;;;14.90;;
80247;SDS011;69560;52.206;21.018;2024-01-07T11:58:15;20.80;;;15.40;;
80247;SDS011;69560;52.206;21.018;2024-01-07T12:00:42;22.20;;;15.50;;
80247;SDS011;69560;52.206;21.018;2024-01-07T12:03:08;19.00;;;13.60;;
80247;SDS011;69560;52.206;21.018;2024-01-07T12:05:35;21.70;;;15.20;;
80247;SDS011;69560;52.206;21.018;2024-01-07T12:08:01;24.20;;;16.30;;
80247;SDS011;69560;52.206;21.018;2024-01-07T12:10:29;20.30;;;14.40;;
80247;SDS011;69560;52.206;21.018;2024-01-07T12:12:58;18.90;;;13.30;;
80247;SDS011;69560;52.206;21.018;2024-01-07T12:15:25;16.50;;;12.40;;
80247;SDS011;69560;52.206;21.018;2024-01-07T12:17:58;19.30;;;14.20;;
80247;SDS011;69560;52.206;21.018;2024-01-07T12:24:00;20.70;;;14.50;;
80247;SDS011;69560;52.206;21.018;2024-01-07T12:26:27;18.40;;;13.40;;
80247;SDS011;69560;52.206;21.018;2024-01-07T12:28:55;18.30;;;13.20;;
80247;SDS011;69560;52.206;21.018;2024-01-07T12:31:31;18.40;;;12.30;;
80247;SDS011;69560;52.206;21.018;2024-01-07T12:33:58;20.30;;;13.50;;
80247;SDS011;69560;52.206;21.018;2024-01-07T12:36:25;21.60;;;14.60;;
80247;SDS011;69560;52.206;21.018;2024-01-07T12:38:52;20.30;;;14.20;;
80247;SDS011;69560;52.206;21.018;2024-01-07T12:41:22;20.60;;;15.10;;
80247;SDS011;69560;52.206;21.018;2024-01-07T12:43:49;23.20;;;15.40;;
80247;SDS011;69560;52.206;21.018;2024-01-07T12:46:16;25.10;;;16.40;;
80247;SDS011;69560;52.206;21.018;2024-01-07T12:51:26;22.80;;;16.00;;
80247;SDS011;69560;52.206;21.018;2024-01-07T12:53:52;23.80;;;16.80;;
80247;SDS011;69560;52.206;21.018;2024-01-07T12:56:31;61.80;;;36.30;;
80247;SDS011;69560;52.206;21.018;2024-01-07T12:58:58;41.30;;;24.60;;
80247;SDS011;69560;52.206;21.018;2024-01-07T13:01:24;24.30;;;16.00;;
80247;SDS011;69560;52.206;21.018;2024-01-07T13:03:50;22.30;;;15.60;;
80247;SDS011;69560;52.206;21.018;2024-01-07T13:06:17;24.70;;;16.40;;
80247;SDS011;69560;52.206;21.018;2024-01-07T13:08:43;23.50;;;16.20;;
80247;SDS011;69560;52.206;21.018;2024-01-07T13:14:02;22.10;;;15.60;;
80247;SDS011;69560;52.206;21.018;2024-01-07T13:21:02;22.70;;;15.20;;
80247;SDS011;69560;52.206;21.018;2024-01-07T13:23:29;19.70;;;14.60;;
80247;SDS011;69560;52.206;21.018;2024-01-07T13:26:00;24.70;;;15.80;;
80247;SDS011;69560;52.206;21.018;2024-01-07T13:28:31;21.80;;;15.80;;
80247;SDS011;69560;52.206;21.018;2024-01-07T13:30:58;23.70;;;15.30;;
80247;SDS011;69560;52.206;21.018;2024-01-07T13:33:24;22.80;;;15.50;;
80247;SDS011;69560;52.206;21.018;2024-01-07T13:35:51;21.70;;;14.70;;
80247;SDS011;69560;52.206;21.018;2024-01-07T13:38:17;23.80;;;15.40;;
80247;SDS011;69560;52.206;21.018;2024-01-07T13:40:43;19.60;;;13.90;;
80247;SDS011;69560;52.206;21.018;2024-01-07T13:46:00;20.30;;;14.20;;
80247;SDS011;69560;52.206;21.018;2024-01-07T13:48:29;23.10;;;15.50;;
80247;SDS011;69560;52.206;21.018;2024-01-07T13:50:55;20.30;;;13.80;;
80247;SDS011;69560;52.206;21.018;2024-01-07T13:53:24;22.00;;;14.50;;
80247;SDS011;69560;52.206;21.018;2024-01-07T13:55:50;21.20;;;14.20;;
80247;SDS011;69560;52.206;21.018;2024-01-07T14:01:53;23.80;;;15.30;;
80247;SDS011;69560;52.206;21.018;2024-01-07T14:04:20;24.00;;;15.30;;
80247;SDS011;69560;52.206;21.018;2024-01-07T14:07:02;24.40;;;17.30;;
80247;SDS011;69560;52.206;21.018;2024-01-07T14:09:29;24.10;;;16.90;;
80247;SDS011;69560;52.206;21.018;2024-01-07T14:12:01;24.30;;;16.30;;
80247;SDS011;69560;52.206;21.018;2024-01-07T14:14:32;25.00;;;16.50;;
80247;SDS011;69560;52.206;21.018;2024-01-07T14:16:59;26.00;;;16.30;;
80247;SDS011;69560;52.206;21.018;2024-01-07T14:19:25;25.20;;;16.20;;
80247;SDS011;69560;52.206;21.018;2024-01-07T14:21:52;23.80;;;16.80;;
80247;SDS011;69560;52.206;21.018;2024-01-07T14:24:18;60.20;;;36.30;;
80247;SDS011;69560;52.206;21.018;2024-01-07T14:26:45;41.50;;;25.50;;
80247;SDS011;69560;52.206;21.018;2024-01-07T14:32:04;23.10;;;15.60;;
80247;SDS011;69560;52.206;21.018;2024-01-07T14:34:32;22.90;;;15.70;;
80247;SDS011;69560;52.206;21.018;2024-01-07T14:37:02;23.40;;;15.50;;
80247;SDS011;69560;52.206;21.018;2024-01-07T14:39:28;26.70;;;16.20;;
80247;SDS011;69560;52.206;21.018;2024-01-07T14:42:04;24.40;;;15.80;;
80247;SDS011;69560;52.206;21.018;2024-01-07T14:44:30;25.40;;;16.80;;
80247;SDS011;69560;52.206;21.018;2024-01-07T14:47:00;25.30;;;16.20;;
80247;SDS011;69560;52.206;21.018;2024-01-07T14:49:33;27.20;;;17.70;;
80247;SDS011;69560;52.206;21.018;2024-01-07T14:52:00;29.60;;;18.60;;
80247;SDS011;69560;52.206;21.018;2024-01-07T14:54:27;28.40;;;16.80;;
80247;SDS011;69560;52.206;21.018;2024-01-07T14:56:53;24.90;;;16.20;;
80247;SDS011;69560;52.206;21.018;2024-01-07T14:59:20;26.40;;;16.60;;
80247;SDS011;69560;52.206;21.018;2024-01-07T15:01:46;26.80;;;17.00;;
80247;SDS011;69560;52.206;21.018;2024-01-07T15:07:00;24.00;;;14.70;;
80247;SDS011;69560;52.206;21.018;2024-01-07T15:09:26;23.20;;;15.30;;
80247;SDS011;69560;52.206;21.018;2024-01-07T15:11:53;27.80;;;15.30;;
80247;SDS011;69560;52.206;21.018;2024-01-07T15:14:33;26.10;;;16.60;;
80247;SDS011;69560;52.206;21.018;2024-01-07T15:17:00;26.70;;;16.10;;
80247;SDS011;69560;52.206;21.018;2024-01-07T15:19:27;26.90;;;15.30;;
80247;SDS011;69560;52.206;21.018;2024-01-07T15:21:53;21.80;;;13.00;;
80247;SDS011;69560;52.206;21.018;2024-01-07T15:24:32;22.50;;;13.60;;
80247;SDS011;69560;52.206;21.018;2024-01-07T15:26:59;19.80;;;13.20;;
80247;SDS011;69560;52.206;21.018;2024-01-07T15:29:25;23.10;;;12.70;;
80247;SDS011;69560;52.206;21.018;2024-01-07T15:31:51;21.70;;;12.20;;
80247;SDS011;69560;52.206;21.018;2024-01-07T15:34:18;25.30;;;13.30;;
80247;SDS011;69560;52.206;21.018;2024-01-07T15:36:44;23.40;;;14.00;;
80247;SDS011;69560;52.206;21.018;2024-01-07T15:41:59;21.90;;;12.60;;
80247;SDS011;69560;52.206;21.018;2024-01-07T15:44:35;21.80;;;12.40;;
80247;SDS011;69560;52.206;21.018;2024-01-07T15:47:02;22.20;;;13.60;;
80247;SDS011;69560;52.206;21.018;2024-01-07T15:49:32;22.00;;;13.50;;
80247;SDS011;69560;52.206;21.018;2024-01-07T15:52:04;23.70;;;14.60;;
80247;SDS011;69560;52.206;21.018;2024-01-07T15:54:31;27.70;;;14.50;;
80247;SDS011;69560;52.206;21.018;2024-01-07T15:56:59;25.80;;;14.40;;
80247;SDS011;69560;52.206;21.018;2024-01-07T15:59:26;25.20;;;14.80;;
80247;SDS011;69560;52.206;21.018;2024-01-07T16:01:53;24.20;;;14.40;;
80247;SDS011;69560;52.206;21.018;2024-01-07T16:04:20;24.40;;;15.20;;
80247;SDS011;69560;52.206;21.018;2024-01-07T16:06:46;26.90;;;15.70;;
80247;SDS011;69560;52.206;21.018;2024-01-07T16:09:15;26.90;;;14.50;;
80247;SDS011;69560;52.206;21.018;2024-01-07T16:11:41;27.80;;;15.20;;
80247;SDS011;69560;52.206;21.018;2024-01-07T16:14:08;26.40;;;15.20;;
80247;SDS011;69560;52.206;21.018;2024-01-07T16:16:37;27.60;;;15.60;;
80247;SDS011;69560;52.206;21.018;2024-01-07T16:21:36;24.80;;;13.80;;
80247;SDS011;69560;52.206;21.018;2024-01-07T16:24:03;27.80;;;14.80;;
80247;SDS011;69560;52.206;21.018;2024-01-07T16:26:30;27.60;;;15.70;;